Time;durP1;ratioP1;P1;durP2;ratioP2;P2;SDS_P1;SDS_P2;PMS_P1;PMS_P2;Temp;Humidity;BMP_temperature;BMP_pressure;BME280_temperature;BME280_humidity;BME280_pressure;Samples;Min_cycle;Max_cycle;Signal;HPM_P1;HPM_P2
2021/06/27 00:01:25;;;;;;;25.00;22.80;;;;;;;17.81;74.11;100610.11;127335;1105;22981;-81
2021/06/27 00:03:56;;;;;;;23.35;21.45;;;;;;;17.79;73.96;100614.83;127699;1105;22497;-83
2021/06/27 00:06:27;;;;;;;23.05;20.93;;;;;;;17.77;73.64;100609.72;127240;1105;24320;-80
2021/06/27 00:08:57;;;;;;;24.07;21.87;;;;;;;17.74;73.75;100615.44;127193;1108;22449;-80
2021/06/27 00:11:28;;;;;;;23.53;21.20;;;;;;;17.70;73.48;100622.23;127139;1108;22514;-80
2021/06/27 00:13:59;;;;;;;23.55;21.50;;;;;;;17.66;73.43;100615.67;127121;1105;22825;-80
2021/06/27 00:16:30;;;;;;;23.40;21.18;;;;;;;17.63;73.51;100613.41;127153;1105;22442;-81
2021/06/27 00:19:03;;;;;;;22.35;20.55;;;;;;;17.59;73.63;100607.66;127312;1105;22873;-81
2021/06/27 00:21:33;;;;;;;23.35;21.33;;;;;;;17.55;73.41;100601.08;127318;1105;22415;-81
2021/06/27 00:24:04;;;;;;;22.53;20.30;;;;;;;17.52;73.59;100611.35;127562;1101;22407;-80
2021/06/27 00:26:37;;;;;;;22.88;20.68;;;;;;;17.48;73.69;100615.47;127628;1101;25778;-79
2021/06/27 00:29:07;;;;;;;23.18;21.08;;;;;;;17.44;73.50;100608.91;127858;1101;22398;-79
2021/06/27 00:31:43;;;;;;;24.90;22.70;;;;;;;17.39;73.40;100613.02;127932;1098;25050;-81
2021/06/27 00:34:13;;;;;;;23.70;21.58;;;;;;;17.35;73.47;100608.28;128213;1098;22385;-82
2021/06/27 00:36:45;;;;;;;23.23;21.05;;;;;;;17.30;73.53;100616.92;128196;1098;22466;-82
2021/06/27 00:39:15;;;;;;;24.40;21.83;;;;;;;17.26;73.38;100615.70;128231;1101;22397;-81
2021/06/27 00:41:49;;;;;;;22.73;20.73;;;;;;;17.23;73.58;100612.59;127931;1101;22636;-82
2021/06/27 00:44:25;;;;;;;25.35;22.63;;;;;;;17.20;73.42;100618.36;127804;1104;22398;-82
2021/06/27 00:46:55;;;;;;;23.45;21.25;;;;;;;17.16;73.39;100634.78;127802;1101;22413;-82
2021/06/27 00:49:25;;;;;;;25.98;21.28;;;;;;;17.13;73.01;100627.19;127811;1101;22583;-81
2021/06/27 00:51:55;;;;;;;22.68;20.60;;;;;;;17.10;73.36;100629.44;127849;1101;23170;-81
2021/06/27 00:54:25;;;;;;;24.40;22.30;;;;;;;17.06;73.42;100630.84;127316;1104;22405;-83
2021/06/27 00:56:55;;;;;;;22.53;20.45;;;;;;;17.01;73.33;100630.65;127381;1101;22440;-83
2021/06/27 00:59:26;;;;;;;22.35;20.43;;;;;;;16.97;73.29;100632.91;127963;1101;22501;-82
2021/06/27 01:01:56;;;;;;;22.33;20.28;;;;;;;16.93;73.36;100629.83;127909;1101;22500;-82
2021/06/27 01:04:26;;;;;;;22.38;20.28;;;;;;;16.89;73.59;100633.92;128200;1100;22503;-81
2021/06/27 01:06:56;;;;;;;23.63;21.45;;;;;;;16.85;73.46;100626.51;128214;1099;23257;-83
2021/06/27 01:09:29;;;;;;;24.78;22.68;;;;;;;16.82;73.69;100624.24;127881;1101;22398;-82
2021/06/27 01:12:02;;;;;;;22.35;20.25;;;;;;;16.78;73.52;100628.34;127877;1101;22873;-82
2021/06/27 01:14:32;;;;;;;24.68;21.58;;;;;;;16.74;73.60;100625.23;127849;1101;22386;-82
2021/06/27 01:17:03;;;;;;;23.63;21.63;;;;;;;16.71;73.67;100628.30;127856;1101;24557;-80
2021/06/27 01:19:36;;;;;;;24.60;22.20;;;;;;;16.68;73.67;100632.18;128002;1101;22450;-80
2021/06/27 01:22:06;;;;;;;22.40;20.35;;;;;;;16.65;74.05;100629.09;127856;1100;22418;-81
2021/06/27 01:24:36;;;;;;;22.68;20.05;;;;;;;16.63;73.97;100631.98;128234;1101;24560;-83
2021/06/27 01:27:07;;;;;;;23.83;21.23;;;;;;;16.59;73.86;100629.89;128225;1100;24531;-82
2021/06/27 01:29:37;;;;;;;24.48;19.63;;;;;;;16.56;73.62;100631.14;128214;1101;23151;-83
2021/06/27 01:32:12;;;;;;;21.63;19.63;;;;;;;16.50;73.78;100631.11;128142;1098;24618;-81
2021/06/27 01:34:45;;;;;;;22.63;20.35;;;;;;;16.45;73.76;100631.70;127846;1101;22402;-82
2021/06/27 01:37:15;;;;;;;22.80;20.48;;;;;;;16.41;73.89;100625.13;127850;1100;22414;-81
2021/06/27 01:39:45;;;;;;;22.98;20.73;;;;;;;16.37;74.03;100629.22;127860;1101;24294;-81
2021/06/27 01:42:15;;;;;;;22.13;20.05;;;;;;;16.34;74.20;100634.94;128019;1101;22520;-83
2021/06/27 01:44:45;;;;;;;23.33;20.95;;;;;;;16.30;73.80;100639.03;128168;1101;22407;-83
2021/06/27 01:47:15;;;;;;;21.88;19.78;;;;;;;16.26;74.38;100635.94;127810;1102;22433;-83
2021/06/27 01:49:45;;;;;;;22.65;20.28;;;;;;;16.22;74.87;100629.34;127830;1103;22401;-83
2021/06/27 01:52:15;;;;;;;24.48;21.95;;;;;;;16.17;74.28;100631.78;127355;1102;22507;-80
2021/06/27 01:54:45;;;;;;;22.95;20.80;;;;;;;16.14;74.08;100632.18;127851;1101;22466;-81
2021/06/27 01:57:21;;;;;;;21.93;20.03;;;;;;;16.10;74.22;100636.27;127785;1101;22427;-81
2021/06/27 01:59:51;;;;;;;23.23;20.93;;;;;;;16.08;74.33;100636.45;127388;1105;22433;-81
2021/06/27 02:02:21;;;;;;;22.85;20.43;;;;;;;16.05;74.54;100638.69;127375;1104;22394;-82
2021/06/27 02:04:51;;;;;;;24.63;21.30;;;;;;;16.02;74.34;100631.08;127392;1101;22411;-81
2021/06/27 02:07:25;;;;;;;22.95;20.73;;;;;;;15.97;74.42;100632.50;127402;1104;23459;-81
2021/06/27 02:09:56;;;;;;;22.85;20.78;;;;;;;15.94;74.51;100630.22;127336;1104;22618;-81
2021/06/27 02:12:31;;;;;;;23.55;21.28;;;;;;;15.91;74.52;100630.61;127207;1108;22450;-81
2021/06/27 02:15:07;;;;;;;23.53;21.50;;;;;;;15.86;74.50;100624.22;126949;1108;22803;-82
2021/06/27 02:17:38;;;;;;;23.28;21.03;;;;;;;15.83;74.64;100622.79;127169;1108;22453;-81
2021/06/27 02:20:09;;;;;;;;;;;;;;;15.75;74.37;100617.59;127048;1108;22453;-82
2021/06/27 02:22:40;;;;;;;23.63;21.63;;;;;;;15.69;74.88;100618.38;126945;1108;21356;-82
2021/06/27 02:25:11;;;;;;;23.93;21.43;;;;;;;15.70;75.03;100630.70;127264;1101;22587;-82
2021/06/27 02:27:42;;;;;;;24.28;21.98;;;;;;;15.69;75.13;100632.53;127293;1105;22400;-81
2021/06/27 02:30:14;;;;;;;22.43;20.13;;;;;;;15.69;75.34;100631.69;127358;1101;22390;-82
2021/06/27 02:32:45;;;;;;;23.83;21.53;;;;;;;15.68;75.14;100630.05;127821;1101;22414;-82
2021/06/27 02:35:15;;;;;;;25.25;22.38;;;;;;;15.64;75.07;100634.09;127836;1101;23238;-83
2021/06/27 02:37:45;;;;;;;23.43;21.10;;;;;;;15.64;74.44;100636.76;127827;1101;22416;-85
2021/06/27 02:40:16;;;;;;;25.43;23.00;;;;;;;15.60;75.11;100638.17;128024;1098;22396;-82
2021/06/27 02:42:46;;;;;;;24.00;21.33;;;;;;;15.57;74.79;100635.89;128228;1098;25039;-83
2021/06/27 02:45:16;;;;;;;24.50;21.93;;;;;;;15.56;75.33;100632.41;127917;1101;22385;-81
2021/06/27 02:47:46;;;;;;;23.23;20.90;;;;;;;15.55;75.25;100625.42;127944;1100;22478;-82
2021/06/27 02:50:17;;;;;;;24.93;22.43;;;;;;;15.52;75.28;100623.95;128237;1098;22484;-82
2021/06/27 02:52:47;;;;;;;26.05;23.55;;;;;;;15.49;75.34;100628.84;128297;1098;22864;-81
2021/06/27 02:55:17;;;;;;;24.48;21.65;;;;;;;15.48;75.32;100625.36;128295;1098;22386;-83
2021/06/27 02:57:47;;;;;;;26.20;21.00;;;;;;;15.48;75.23;100620.05;128348;1098;22420;-81
2021/06/27 03:00:22;;;;;;;23.38;21.18;;;;;;;15.47;75.50;100617.59;128365;1098;22392;-81
2021/06/27 03:02:53;;;;;;;22.58;20.33;;;;;;;15.49;75.58;100621.70;128331;1098;22487;-82
2021/06/27 03:05:23;;;;;;;22.33;20.05;;;;;;;15.49;75.50;100613.72;128401;1098;22400;-81
2021/06/27 03:07:54;;;;;;;22.93;20.83;;;;;;;15.49;75.76;100624.38;128490;1098;22453;-80
2021/06/27 03:10:24;;;;;;;22.38;20.05;;;;;;;15.51;75.60;100626.83;127974;1100;22167;-81
2021/06/27 03:12:55;;;;;;;22.00;20.00;;;;;;;15.53;75.79;100622.14;128087;1101;22424;-83
2021/06/27 03:15:25;;;;;;;21.77;19.83;;;;;;;15.56;75.68;100620.91;128316;1101;22383;-83
2021/06/27 03:17:54;;;;;;;22.15;20.08;;;;;;;15.60;75.67;100624.86;128288;1101;22438;-81
2021/06/27 03:20:24;;;;;;;21.15;19.18;;;;;;;15.62;75.43;100620.95;127869;1101;22399;-82
2021/06/27 03:22:55;;;;;;;21.55;19.65;;;;;;;15.63;75.15;100627.13;127907;1101;22428;-81
2021/06/27 03:25:28;;;;;;;21.55;19.43;;;;;;;15.65;75.10;100628.56;127844;1101;24362;-82
2021/06/27 03:27:58;;;;;;;21.53;19.43;;;;;;;15.67;74.64;100634.56;127908;1101;22425;-81
2021/06/27 03:30:28;;;;;;;22.18;20.18;;;;;;;15.68;74.62;100625.55;127941;1101;22439;-80
2021/06/27 03:33:00;;;;;;;21.60;19.60;;;;;;;15.71;74.31;100621.67;127879;1101;22423;-82
2021/06/27 03:35:30;;;;;;;23.73;19.85;;;;;;;15.73;73.88;100624.98;127607;1101;22431;-81
2021/06/27 03:38:11;;;;;;;21.25;19.20;;;;;;;15.75;74.18;100620.27;127342;1105;22425;-80
2021/06/27 03:40:42;;;;;;;21.65;18.78;;;;;;;15.79;74.18;100621.52;127871;1101;22429;-80
2021/06/27 03:43:13;;;;;;;21.20;19.08;;;;;;;15.85;74.02;100622.58;127901;1101;22394;-81
2021/06/27 03:45:43;;;;;;;19.95;18.10;;;;;;;15.91;73.88;100630.61;127371;1104;22433;-81
2021/06/27 03:48:13;;;;;;;20.18;17.98;;;;;;;15.96;73.65;100628.20;127111;1108;22880;-81
2021/06/27 03:50:43;;;;;;;18.97;17.17;;;;;;;15.99;73.57;100625.14;127252;1108;22532;-81
2021/06/27 03:53:20;;;;;;;19.13;17.15;;;;;;;16.06;73.20;100624.33;127387;1105;22897;-82
2021/06/27 03:55:56;;;;;;;20.50;17.80;;;;;;;16.10;72.73;100625.61;127298;1105;22391;-80
2021/06/27 03:58:28;;;;;;;19.20;17.25;;;;;;;16.12;72.04;100627.03;127167;1105;22416;-81
2021/06/27 04:00:58;;;;;;;18.05;16.20;;;;;;;16.16;72.71;100627.45;127103;1108;22418;-81
2021/06/27 04:03:28;;;;;;;24.78;15.95;;;;;;;16.23;72.29;100626.48;127296;1104;24563;-81
2021/06/27 04:05:58;;;;;;;18.30;16.50;;;;;;;16.31;72.26;100633.48;127196;1105;22521;-81
2021/06/27 04:08:28;;;;;;;17.98;16.25;;;;;;;16.35;71.86;100632.06;127376;1104;22392;-81
2021/06/27 04:11:00;;;;;;;16.48;14.98;;;;;;;16.43;71.67;100631.91;127303;1105;22525;-81
2021/06/27 04:13:31;;;;;;;;;;;;;;;16.48;71.57;100636.63;127370;1104;22637;-81
2021/06/27 04:16:06;;;;;;;19.58;13.90;;;;;;;16.48;71.62;100639.30;127324;1104;21289;-82
2021/06/27 04:18:37;;;;;;;16.35;13.75;;;;;;;16.60;71.80;100628.89;127293;1105;22412;-82
2021/06/27 04:21:11;;;;;;;17.08;15.03;;;;;;;16.67;71.09;100635.88;127226;1107;22746;-82
2021/06/27 04:23:41;;;;;;;19.90;14.80;;;;;;;16.74;70.63;100627.89;127295;1105;22532;-81
2021/06/27 04:26:11;;;;;;;16.28;14.75;;;;;;;16.82;70.64;100632.25;127576;1101;22423;-81
2021/06/27 04:28:43;;;;;;;16.20;14.50;;;;;;;16.90;70.31;100635.56;127833;1101;25291;-80
2021/06/27 04:31:14;;;;;;;15.65;14.15;;;;;;;16.98;70.11;100633.72;127865;1101;22488;-83
2021/06/27 04:33:45;;;;;;;19.28;15.23;;;;;;;17.03;69.84;100639.29;127775;1101;22408;-83
2021/06/27 04:36:18;;;;;;;15.18;13.73;;;;;;;17.10;69.95;100638.27;127570;1101;22529;-83
2021/06/27 04:38:50;;;;;;;14.93;12.88;;;;;;;17.17;69.73;100635.60;127905;1098;22408;-82
2021/06/27 04:41:20;;;;;;;18.38;15.20;;;;;;;17.25;69.07;100630.05;127915;1098;22394;-83
2021/06/27 04:43:51;;;;;;;17.23;15.63;;;;;;;17.33;69.04;100632.53;127946;1098;22396;-82
2021/06/27 04:46:21;;;;;;;15.45;13.85;;;;;;;17.41;68.81;100626.16;127947;1101;24234;-81
2021/06/27 04:48:51;;;;;;;16.63;14.93;;;;;;;17.49;68.60;100635.80;127950;1100;22430;-82
2021/06/27 04:51:22;;;;;;;15.60;14.07;;;;;;;17.59;68.38;100639.72;127933;1101;25165;-83
2021/06/27 04:53:52;;;;;;;19.33;13.98;;;;;;;17.69;68.29;100636.60;127916;1101;22415;-84
2021/06/27 04:56:22;;;;;;;14.38;13.00;;;;;;;17.79;67.95;100642.41;128227;1101;22405;-84
2021/06/27 04:58:52;;;;;;;16.68;14.53;;;;;;;17.90;68.29;100640.13;128206;1101;22397;-82
2021/06/27 05:01:23;;;;;;;16.65;15.13;;;;;;;18.02;67.89;100633.90;128208;1101;22401;-84
2021/06/27 05:03:53;;;;;;;17.40;15.60;;;;;;;18.15;67.68;100635.72;128223;1098;25315;-84
2021/06/27 05:06:23;;;;;;;15.83;14.13;;;;;;;18.29;67.86;100636.49;128378;1098;22457;-83
2021/06/27 05:08:56;;;;;;;16.33;14.60;;;;;;;18.40;67.36;100635.84;128473;1098;22411;-84
2021/06/27 05:11:26;;;;;;;15.70;14.23;;;;;;;18.51;67.08;100629.00;127891;1098;22400;-82
2021/06/27 05:13:58;;;;;;;16.75;14.95;;;;;;;18.65;66.96;100638.59;127906;1098;22442;-80
2021/06/27 05:16:28;;;;;;;17.10;15.58;;;;;;;18.82;66.59;100638.95;128210;1098;22391;-79
2021/06/27 05:19:01;;;;;;;20.58;13.58;;;;;;;18.97;66.05;100634.13;127652;1098;23239;-79
2021/06/27 05:21:32;;;;;;;18.90;16.95;;;;;;;19.11;66.09;100631.36;127895;1098;22382;-79
2021/06/27 05:24:02;;;;;;;20.70;18.60;;;;;;;19.32;65.75;100630.98;127950;1098;22482;-79
2021/06/27 05:26:32;;;;;;;16.25;14.70;;;;;;;19.52;65.12;100636.17;127949;1098;24521;-78
2021/06/27 05:29:03;;;;;;;18.40;15.13;;;;;;;19.65;64.67;100637.95;127488;1101;22837;-79
2021/06/27 05:31:36;;;;;;;16.65;15.25;;;;;;;19.84;64.55;100636.94;127495;1101;22404;-79
2021/06/27 05:34:06;;;;;;;17.93;16.13;;;;;;;20.14;64.58;100630.84;127787;1101;22403;-80
2021/06/27 05:36:39;;;;;;;14.45;13.20;;;;;;;20.41;63.64;100632.16;127645;1101;22426;-83
2021/06/27 05:39:11;;;;;;;17.50;14.73;;;;;;;20.67;63.12;100624.84;127632;1101;22442;-79
2021/06/27 05:41:43;;;;;;;14.43;12.95;;;;;;;21.05;62.83;100635.23;127721;1101;22395;-80
2021/06/27 05:44:14;;;;;;;14.20;12.78;;;;;;;21.50;62.05;100629.38;127905;1101;22397;-80
2021/06/27 05:46:44;;;;;;;15.25;12.60;;;;;;;21.98;61.17;100628.29;127570;1101;22446;-78
2021/06/27 05:49:14;;;;;;;11.60;10.43;;;;;;;22.46;59.88;100629.86;127931;1098;22493;-79
2021/06/27 05:51:55;;;;;;;13.33;11.65;;;;;;;22.87;58.32;100625.22;128008;1098;22514;-79
2021/06/27 05:54:25;;;;;;;13.33;11.67;;;;;;;23.21;57.35;100628.78;127488;1101;25042;-79
2021/06/27 05:56:55;;;;;;;14.03;12.68;;;;;;;23.57;56.45;100631.23;127586;1101;24543;-79
2021/06/27 05:59:25;;;;;;;16.45;13.65;;;;;;;23.98;55.61;100626.44;127518;1101;22910;-79
2021/06/27 06:01:55;;;;;;;17.17;15.13;;;;;;;24.30;54.38;100627.39;127522;1101;22395;-79
2021/06/27 06:04:24;;;;;;;15.90;14.30;;;;;;;24.64;53.57;100630.76;127295;1105;22490;-80
2021/06/27 06:06:55;;;;;;;14.75;13.38;;;;;;;24.97;52.75;100630.81;127300;1105;22417;-78
2021/06/27 06:09:25;;;;;;;23.43;15.93;;;;;;;25.31;52.34;100643.02;127156;1105;24218;-78
2021/06/27 06:11:54;;;;;;;18.43;13.60;;;;;;;25.58;51.17;100652.95;127222;1105;22384;-81
2021/06/27 06:14:25;;;;;;;17.10;12.80;;;;;;;25.87;50.88;100653.45;127141;1105;22430;-80
2021/06/27 06:16:55;;;;;;;13.75;12.45;;;;;;;26.11;50.01;100645.71;127338;1101;22582;-80
2021/06/27 06:19:25;;;;;;;14.73;11.05;;;;;;;26.40;49.24;100650.71;127930;1098;22404;-80
2021/06/27 06:21:55;;;;;;;15.40;10.58;;;;;;;26.75;48.38;100653.52;128207;1098;24591;-80
2021/06/27 06:24:25;;;;;;;10.55;8.88;;;;;;;27.07;47.57;100659.82;128283;1098;22388;-80
2021/06/27 06:26:55;;;;;;;13.17;7.97;;;;;;;27.32;46.58;100651.70;128274;1098;22393;-81
2021/06/27 06:29:25;;;;;;;13.03;8.53;;;;;;;27.58;45.62;100662.55;128303;1097;22389;-81
2021/06/27 06:31:55;;;;;;;11.65;8.68;;;;;;;27.79;44.86;100663.34;128273;1098;22399;-80
2021/06/27 06:34:28;;;;;;;7.60;6.83;;;;;;;28.07;44.26;100662.73;128288;1098;22845;-80
2021/06/27 06:36:58;;;;;;;7.15;6.45;;;;;;;28.15;43.25;100673.01;128329;1098;25024;-81
2021/06/27 06:39:28;;;;;;;5.95;5.23;;;;;;;28.30;42.59;100664.00;128009;1098;22496;-79
2021/06/27 06:41:57;;;;;;;9.55;5.85;;;;;;;28.45;41.79;100662.33;128298;1098;22392;-80
2021/06/27 06:44:28;;;;;;;6.43;4.70;;;;;;;28.65;40.38;100664.13;128193;1101;22507;-81
2021/06/27 06:46:57;;;;;;;6.33;4.35;;;;;;;28.76;40.24;100669.23;127756;1101;23357;-79
2021/06/27 06:49:27;;;;;;;5.93;4.47;;;;;;;28.94;39.23;100666.94;127203;1105;22461;-80
2021/06/27 06:51:57;;;;;;;4.70;3.80;;;;;;;29.17;38.18;100668.16;127323;1105;22425;-80
2021/06/27 06:54:30;;;;;;;5.53;4.55;;;;;;;29.29;37.74;100657.70;127312;1105;22440;-80
2021/06/27 06:57:00;;;;;;;4.28;3.60;;;;;;;29.42;36.81;100664.39;127313;1104;24313;-80
2021/06/27 06:59:30;;;;;;;7.00;3.40;;;;;;;29.66;36.26;100667.22;127235;1105;22417;-79
2021/06/27 07:01:59;;;;;;;3.10;2.80;;;;;;;29.83;35.51;100672.22;127345;1105;22422;-81
2021/06/27 07:04:30;;;;;;;6.85;2.65;;;;;;;29.87;35.18;100663.17;127133;1105;24653;-79
2021/06/27 07:07:00;;;;;;;6.57;2.63;;;;;;;30.10;34.91;100656.09;127851;1101;23292;-80
2021/06/27 07:09:34;;;;;;;4.93;3.35;;;;;;;30.20;33.79;100666.09;128069;1098;22371;-81
2021/06/27 07:12:05;;;;;;;3.48;3.18;;;;;;;30.35;34.03;100670.52;128200;1098;22478;-80
2021/06/27 07:14:35;;;;;;;5.18;3.35;;;;;;;30.38;33.44;100662.57;127970;1098;24508;-79
2021/06/27 07:17:05;;;;;;;7.78;2.48;;;;;;;30.52;33.00;100662.66;127945;1098;22475;-79
2021/06/27 07:19:35;;;;;;;5.80;2.53;;;;;;;30.79;32.10;100664.78;128048;1098;22369;-79
2021/06/27 07:22:05;;;;;;;4.73;2.28;;;;;;;30.98;31.08;100662.02;128050;1098;22391;-78
2021/06/27 07:24:36;;;;;;;4.28;2.75;;;;;;;31.00;30.98;100662.55;128028;1098;22400;-78
2021/06/27 07:27:07;;;;;;;2.50;2.30;;;;;;;30.92;30.78;100666.77;128413;1097;25053;-80
2021/06/27 07:29:37;;;;;;;3.08;2.08;;;;;;;30.85;30.98;100663.57;128304;1097;24556;-82
2021/06/27 07:32:07;;;;;;;3.47;2.07;;;;;;;30.91;30.22;100661.59;128602;1098;23156;-81
2021/06/27 07:34:36;;;;;;;2.58;2.30;;;;;;;30.89;30.01;100664.63;128306;1098;23437;-82
2021/06/27 07:37:08;;;;;;;3.95;2.38;;;;;;;30.87;30.69;100666.02;128338;1097;24534;-82
2021/06/27 07:39:38;;;;;;;;;;;;;;;30.93;30.21;100662.92;128364;1098;22398;-80
2021/06/27 07:42:11;;;;;;;7.93;3.50;;;;;;;31.04;30.45;100665.48;128375;1098;21266;-81
2021/06/27 07:44:41;;;;;;;6.00;1.95;;;;;;;31.21;29.17;100667.67;128244;1101;22448;-81
2021/06/27 07:47:17;;;;;;;9.35;8.40;;;;;;;31.25;29.72;100665.95;128057;1101;22433;-83
2021/06/27 07:49:46;;;;;;;4.93;3.30;;;;;;;31.35;29.49;100669.34;127787;1101;22414;-78
2021/06/27 07:52:16;;;;;;;5.68;2.80;;;;;;;31.27;29.03;100664.55;127595;1101;24569;-78
2021/06/27 07:54:46;;;;;;;7.45;3.15;;;;;;;31.30;28.89;100661.23;127524;1101;22407;-77
2021/06/27 07:57:16;;;;;;;5.20;3.10;;;;;;;31.48;28.30;100659.57;127508;1101;22424;-78
2021/06/27 07:59:48;;;;;;;4.90;2.03;;;;;;;31.55;27.98;100661.91;127514;1101;23374;-78
2021/06/27 08:02:17;;;;;;;3.90;1.68;;;;;;;31.64;27.51;100660.91;127566;1101;22415;-76
2021/06/27 08:04:47;;;;;;;3.50;1.90;;;;;;;31.70;27.47;100664.38;127973;1096;22398;-78
2021/06/27 08:07:17;;;;;;;4.30;2.03;;;;;;;31.81;27.90;100671.25;128225;1098;24219;-77
2021/06/27 08:09:47;;;;;;;2.87;2.00;;;;;;;31.75;27.85;100669.72;128237;1098;22396;-77
2021/06/27 08:12:16;;;;;;;5.00;2.30;;;;;;;31.72;27.69;100664.86;128260;1098;22391;-77
2021/06/27 08:14:46;;;;;;;7.35;2.13;;;;;;;31.73;28.15;100662.97;128234;1098;22391;-78
2021/06/27 08:17:16;;;;;;;3.15;2.15;;;;;;;31.76;27.44;100667.83;128058;1098;22096;-76
2021/06/27 08:19:46;;;;;;;4.77;3.43;;;;;;;31.78;27.93;100660.13;128083;1098;22731;-76
2021/06/27 08:22:18;;;;;;;2.43;2.03;;;;;;;31.96;27.39;100661.19;128224;1098;22313;-77
2021/06/27 08:24:48;;;;;;;2.63;1.78;;;;;;;32.09;26.70;100660.38;128246;1098;22388;-77
2021/06/27 08:27:18;;;;;;;2.57;1.90;;;;;;;32.19;26.79;100662.06;128199;1098;22386;-77
2021/06/27 08:29:47;;;;;;;9.27;2.50;;;;;;;32.27;26.87;100655.89;128197;1098;24291;-78
2021/06/27 08:32:17;;;;;;;3.78;2.00;;;;;;;32.35;26.88;100660.63;128204;1098;22759;-77
2021/06/27 08:34:47;;;;;;;5.08;2.85;;;;;;;32.44;26.30;100660.75;128238;1097;22395;-77
2021/06/27 08:37:17;;;;;;;3.70;2.30;;;;;;;32.33;25.90;100652.75;128197;1098;23157;-77
2021/06/27 08:39:47;;;;;;;4.40;2.53;;;;;;;32.18;26.45;100658.52;128014;1098;23334;-77
2021/06/27 08:42:21;;;;;;;4.43;2.70;;;;;;;32.14;27.13;100660.25;128191;1098;22906;-77
2021/06/27 08:44:54;;;;;;;4.58;2.03;;;;;;;32.19;26.96;100653.86;128392;1098;22388;-76
2021/06/27 08:47:24;;;;;;;3.10;1.95;;;;;;;32.17;27.06;100654.18;128190;1098;22391;-77
2021/06/27 08:50:19;;;;;;;6.50;2.15;;;;;;;32.30;27.09;100653.36;128273;1098;23154;-85
2021/06/27 08:52:54;;;;;;;4.10;1.90;;;;;;;32.38;26.58;100661.95;128143;1101;23472;-80
2021/06/27 08:55:24;;;;;;;3.80;2.03;;;;;;;32.37;26.30;100658.41;128089;1101;22990;-81
2021/06/27 08:57:55;;;;;;;4.85;1.95;;;;;;;32.22;26.33;100650.52;127817;1101;22382;-79
2021/06/27 09:00:25;;;;;;;3.48;2.45;;;;;;;32.26;26.04;100659.75;128133;1101;22388;-80
2021/06/27 09:02:56;;;;;;;5.93;2.00;;;;;;;32.41;26.07;100659.41;128109;1101;24514;-80
2021/06/27 09:05:30;;;;;;;4.55;2.40;;;;;;;32.47;25.60;100649.20;128122;1101;24362;-80
2021/06/27 09:08:17;;;;;;;4.30;2.15;;;;;;;32.42;25.26;100652.84;128148;1101;22408;-78
2021/06/27 09:10:48;;;;;;;4.25;1.93;;;;;;;32.31;25.97;100646.77;128318;1098;22688;-80
2021/06/27 09:13:42;;;;;;;4.88;2.23;;;;;;;32.20;26.43;100641.84;128212;1098;23252;-80
2021/06/27 09:16:23;;;;;;;3.38;1.98;;;;;;;32.15;26.19;100645.47;127893;1101;22374;-80
2021/06/27 09:19:02;;;;;;;2.28;1.90;;;;;;;32.34;26.50;100648.88;128151;1101;25103;-80
2021/06/27 09:21:32;;;;;;;2.83;1.80;;;;;;;32.49;25.95;100645.05;128117;1101;24545;-79
2021/06/27 09:24:02;;;;;;;2.50;1.80;;;;;;;32.77;25.58;100639.48;128178;1101;22460;-80
2021/06/27 09:26:34;;;;;;;6.05;2.00;;;;;;;32.99;25.15;100649.64;127922;1101;22412;-79
2021/06/27 09:29:04;;;;;;;4.00;2.08;;;;;;;32.90;24.88;100643.30;127846;1101;22422;-78
2021/06/27 09:31:42;;;;;;;2.38;1.63;;;;;;;32.94;25.31;100639.61;127530;1100;22415;-79
2021/06/27 09:34:14;;;;;;;3.93;2.95;;;;;;;32.95;25.02;100633.02;127738;1101;22433;-79
2021/06/27 09:36:53;;;;;;;4.20;1.70;;;;;;;32.92;24.98;100630.09;128099;1101;22416;-79
2021/06/27 09:39:23;;;;;;;2.73;1.75;;;;;;;32.85;24.45;100629.72;127951;1099;22404;-78
2021/06/27 09:41:58;;;;;;;3.68;2.28;;;;;;;32.81;24.78;100630.34;127975;1100;24298;-79
2021/06/27 09:44:28;;;;;;;2.53;1.65;;;;;;;32.80;24.70;100627.93;128008;1101;22720;-79
2021/06/27 09:46:58;;;;;;;6.85;1.80;;;;;;;32.65;25.30;100631.81;127950;1098;22388;-79
2021/06/27 09:49:32;;;;;;;4.78;4.38;;;;;;;32.64;25.11;100632.94;128056;1098;22404;-79
2021/06/27 09:52:08;;;;;;;3.48;1.80;;;;;;;32.54;25.64;100636.72;128096;1098;22401;-79
2021/06/27 09:54:39;;;;;;;2.35;2.05;;;;;;;32.52;25.15;100614.36;128008;1098;22499;-79
2021/06/27 09:57:09;;;;;;;2.75;2.00;;;;;;;32.56;25.15;100620.02;127968;1101;22490;-78
2021/06/27 09:59:41;;;;;;;2.93;1.87;;;;;;;32.63;25.20;100617.66;127621;1101;22400;-78
2021/06/27 10:02:11;;;;;;;5.05;1.90;;;;;;;32.60;25.86;100617.47;128049;1101;23350;-78
2021/06/27 10:04:42;;;;;;;3.50;1.90;;;;;;;32.55;25.44;100618.38;127937;1101;23175;-79
2021/06/27 10:07:12;;;;;;;4.30;2.20;;;;;;;32.55;25.76;100619.19;128194;1101;23316;-79
2021/06/27 10:09:42;;;;;;;4.47;2.10;;;;;;;32.62;24.98;100626.16;127961;1100;22385;-78
2021/06/27 10:12:22;;;;;;;3.73;2.48;;;;;;;32.62;24.74;100615.22;127677;1101;23314;-79
2021/06/27 10:14:58;;;;;;;3.70;2.03;;;;;;;32.42;24.96;100611.00;128066;1098;24557;-79
2021/06/27 10:17:28;;;;;;;5.18;1.95;;;;;;;32.28;25.03;100602.83;128293;1098;22261;-79
2021/06/27 10:19:59;;;;;;;5.73;2.27;;;;;;;32.21;25.18;100616.11;128107;1098;22487;-79
2021/06/27 10:22:32;;;;;;;4.45;2.05;;;;;;;32.01;25.46;100606.42;128284;1098;22397;-79
2021/06/27 10:25:03;;;;;;;4.65;2.63;;;;;;;31.84;25.63;100602.36;128065;1098;22862;-78
2021/06/27 10:27:33;;;;;;;3.85;2.93;;;;;;;31.50;25.95;100602.76;128538;1098;23196;-79
2021/06/27 10:30:08;;;;;;;2.43;1.85;;;;;;;31.28;26.04;100600.66;127975;1098;22397;-79
2021/06/27 10:32:42;;;;;;;3.40;2.18;;;;;;;31.13;26.40;100592.77;128006;1101;23945;-79
2021/06/27 10:35:15;;;;;;;3.90;1.75;;;;;;;31.02;26.53;100599.48;127970;1098;22394;-79
2021/06/27 10:37:46;;;;;;;4.25;2.05;;;;;;;30.77;26.76;100598.80;127963;1098;22443;-78
2021/06/27 10:40:18;;;;;;;3.80;2.20;;;;;;;30.19;27.51;100601.78;128042;1098;22488;-78
2021/06/27 10:42:51;;;;;;;5.87;2.37;;;;;;;29.91;27.83;100598.03;127969;1098;22385;-79
2021/06/27 10:45:30;;;;;;;4.08;2.43;;;;;;;29.82;28.52;100600.58;127971;1098;22383;-79
2021/06/27 10:48:01;;;;;;;5.80;1.90;;;;;;;29.83;28.75;100595.97;128073;1098;22388;-78
2021/06/27 10:50:54;;;;;;;5.55;2.60;;;;;;;29.77;28.42;100597.93;128280;1096;22385;-79
2021/06/27 10:53:24;;;;;;;5.20;2.50;;;;;;;29.66;28.83;100588.27;128030;1098;24537;-79
2021/06/27 10:55:58;;;;;;;3.43;2.50;;;;;;;29.64;28.88;100582.29;128079;1098;22391;-81
2021/06/27 10:58:38;;;;;;;3.70;2.53;;;;;;;29.58;28.86;100583.41;128211;1098;22389;-79
2021/06/27 11:01:13;;;;;;;8.63;2.60;;;;;;;29.42;28.59;100589.00;128255;1098;22404;-78
2021/06/27 11:03:46;;;;;;;3.68;2.23;;;;;;;29.24;28.93;100581.58;128052;1098;22534;-78
2021/06/27 11:06:39;;;;;;;2.85;2.30;;;;;;;29.02;29.03;100572.00;128069;1098;22407;-79
2021/06/27 11:09:27;;;;;;;3.73;2.88;;;;;;;28.80;29.65;100566.98;127601;1101;22359;-78
2021/06/27 11:11:59;;;;;;;4.38;2.03;;;;;;;28.67;29.20;100573.05;127909;1100;24547;-80
2021/06/27 11:14:29;;;;;;;2.30;1.90;;;;;;;28.44;29.37;100576.48;127762;1101;22396;-78
2021/06/27 11:17:07;;;;;;;;;;;;;;;28.18;29.48;100570.34;127648;1101;24521;-79
2021/06/27 11:19:42;;;;;;;2.63;2.20;;;;;;;28.02;30.55;100575.84;127982;1101;22991;-78
2021/06/27 11:22:22;;;;;;;4.40;2.30;;;;;;;27.98;30.52;100566.63;127973;1101;22440;-78
2021/06/27 11:24:55;;;;;;;21.80;3.30;;;;;;;27.91;30.29;100566.93;127948;1101;22367;-77
2021/06/27 11:27:41;;;;;;;7.40;2.65;;;;;;;27.77;30.46;100571.34;127961;1101;24177;-78
2021/06/27 11:30:32;;;;;;;3.83;2.20;;;;;;;27.64;30.73;100558.33;127579;1101;22364;-78